CheckWX is a tool to help pilots better visualize weather data.  It is not intended as a substitute for an official pre-flight weather briefing.

23:48:51 UTC

KVUJ METAR
Stanly County Airport
Albemarle, North Carolina, USA
Current

34 mins ago

KVUJ 092315Z AUTO 01004KT 10SM CLR 29/22 A2992 RMK AO2 LTG DSNT E T02870221
Observed
Jul-9 @ 23:15 UTC
Wind
  • 010° at 4 KTS
Visibility
10 SM
Flight Rules
VFR
Cloud Levels
  • Clear skies
Temperature
29°C / 84°F
Dewpoint
22°C / 72°F
Humidity
66%
Altimeter
29.92" Hg
Pressure
1013.22 hPa
Previous

54 mins ago

KVUJ 092255Z AUTO 02006KT 10SM SCT037 29/22 A2992 RMK AO2 LTG DSNT E AND W T02930219
Observed
Jul-9 @ 22:55 UTC
Wind
  • 020° at 6 KTS
Visibility
10 SM
Flight Rules
VFR
Cloud Levels
  • Scattered at 3,700' AGL
Temperature
29°C / 84°F
Dewpoint
22°C / 72°F
Humidity
66%
Altimeter
29.92" Hg
Pressure
1013.22 hPa
Previous

1 hour ago

KVUJ 092235Z AUTO 02004KT 10SM VCTS BKN037 BKN042 BKN055 30/23 A2992 RMK AO2 LTG DSNT E T03030227
Observed
Jul-9 @ 22:35 UTC
Wind
  • 020° at 4 KTS
Visibility
10 SM
Flight Rules
VFR
Conditions
Area Thunderstorm
Cloud Levels
  • Broken at 3,700' AGL
  • Broken at 4,200' AGL
  • Broken at 5,500' AGL
Temperature
30°C / 86°F
Dewpoint
23°C / 73°F
Humidity
66%
Altimeter
29.92" Hg
Pressure
1013.22 hPa